createdAt,value
2023-03-26T00:01:28.349Z,83
2023-03-26T00:04:28.388Z,86
2023-03-26T00:06:28.389Z,81
2023-03-26T00:09:28.373Z,124
2023-03-26T00:11:28.390Z,131
2023-03-26T00:13:28.476Z,90
2023-03-26T00:16:28.384Z,128
2023-03-26T00:18:28.357Z,125
2023-03-26T00:21:28.505Z,81
2023-03-26T00:23:28.359Z,58
2023-03-26T00:26:28.375Z,65
2023-03-26T00:29:28.374Z,90
2023-03-26T00:32:28.374Z,35
2023-03-26T00:34:29.482Z,82
2023-03-26T00:36:28.410Z,103
2023-03-26T00:38:28.450Z,77
2023-03-26T00:41:29.618Z,57
2023-03-26T00:43:28.351Z,72
2023-03-26T00:46:28.408Z,79
2023-03-26T00:48:38.193Z,53
2023-03-26T00:51:28.489Z,116
2023-03-26T00:54:28.485Z,79
2023-03-26T00:57:35.366Z,87
2023-03-26T00:59:28.395Z,80
2023-03-26T01:02:28.498Z,73
2023-03-26T01:05:28.362Z,84
2023-03-26T01:07:28.355Z,48
2023-03-26T01:10:28.426Z,62
2023-03-26T01:12:31.328Z,94
2023-03-26T01:15:28.516Z,87
2023-03-26T01:18:28.397Z,76
2023-03-26T01:21:28.354Z,159
2023-03-26T01:23:28.403Z,103
2023-03-26T01:26:28.354Z,74
2023-03-26T01:29:28.429Z,98
2023-03-26T01:32:28.406Z,94
2023-03-26T01:34:28.396Z,65
2023-03-26T01:39:28.409Z,71
2023-03-26T01:42:28.403Z,60
2023-03-26T01:45:28.370Z,53
2023-03-26T01:48:28.379Z,69
2023-03-26T01:50:28.527Z,76
2023-03-26T01:53:29.783Z,40
2023-03-26T01:56:28.480Z,58
2023-03-26T01:58:28.398Z,59
2023-03-26T02:00:28.513Z,54
2023-03-26T02:03:28.476Z,51
2023-03-26T02:05:28.413Z,89
2023-03-26T02:08:28.395Z,78
2023-03-26T02:11:35.222Z,118
2023-03-26T02:13:28.352Z,62
2023-03-26T02:15:28.361Z,145
2023-03-26T02:17:28.425Z,124
2023-03-26T02:20:28.386Z,58
2023-03-26T02:23:28.492Z,108
2023-03-26T02:25:28.531Z,57
2023-03-26T02:28:28.385Z,60
2023-03-26T02:31:28.451Z,48
2023-03-26T02:33:28.432Z,73
2023-03-26T02:36:28.615Z,69
2023-03-26T02:39:28.334Z,70
2023-03-26T02:41:28.420Z,64
2023-03-26T02:44:28.427Z,52
2023-03-26T02:46:28.421Z,66
2023-03-26T02:49:28.429Z,90
2023-03-26T02:52:28.367Z,115
2023-03-26T02:54:28.388Z,61
2023-03-26T02:57:28.410Z,75
2023-03-26T03:00:28.329Z,92
2023-03-26T03:02:28.369Z,112
2023-03-26T03:05:28.393Z,80
2023-03-26T03:08:28.593Z,162
2023-03-26T03:11:28.384Z,137
2023-03-26T03:13:28.384Z,106
2023-03-26T03:16:28.484Z,150
2023-03-26T03:19:28.433Z,107
2023-03-26T03:22:28.377Z,73
2023-03-26T03:24:28.449Z,85
2023-03-26T03:27:28.491Z,93
2023-03-26T03:30:28.512Z,95
2023-03-26T03:33:28.352Z,93
2023-03-26T03:35:30.199Z,56
2023-03-26T03:38:28.357Z,77
2023-03-26T03:41:28.429Z,53
2023-03-26T03:43:28.389Z,65
2023-03-26T03:46:28.457Z,62
2023-03-26T03:48:28.356Z,60
2023-03-26T03:50:28.395Z,58
2023-03-26T03:52:28.433Z,78
2023-03-26T03:55:28.389Z,53
2023-03-26T03:57:28.388Z,39
2023-03-26T03:59:28.962Z,61
2023-03-26T04:02:28.404Z,89
2023-03-26T04:04:28.468Z,94
2023-03-26T04:06:28.388Z,99
2023-03-26T04:09:28.385Z,53
2023-03-26T04:11:28.393Z,63
2023-03-26T04:14:28.396Z,78
2023-03-26T04:17:28.355Z,70
2023-03-26T04:19:28.522Z,58
2023-03-26T04:22:28.375Z,78
2023-03-26T04:24:28.525Z,84
2023-03-26T04:27:28.422Z,94
2023-03-26T04:30:28.392Z,101
2023-03-26T04:33:28.367Z,82
2023-03-26T04:36:28.428Z,67
2023-03-26T04:38:28.385Z,77
2023-03-26T04:41:28.448Z,75
2023-03-26T04:43:28.393Z,70
2023-03-26T04:46:28.552Z,73
2023-03-26T04:49:28.540Z,60
2023-03-26T04:51:28.383Z,49
2023-03-26T04:53:28.385Z,70
2023-03-26T04:55:28.384Z,83
2023-03-26T04:58:28.414Z,97
2023-03-26T05:01:28.433Z,100
2023-03-26T05:04:28.443Z,96
2023-03-26T05:06:28.414Z,71
2023-03-26T05:09:28.397Z,57
2023-03-26T05:11:28.420Z,78
2023-03-26T05:14:28.751Z,76
2023-03-26T05:17:28.414Z,78
2023-03-26T05:19:28.981Z,59
2023-03-26T05:22:28.388Z,57
2023-03-26T05:25:29.270Z,85
2023-03-26T05:28:28.361Z,77
2023-03-26T05:30:28.476Z,103
2023-03-26T05:33:28.420Z,75
2023-03-26T05:36:28.436Z,73
2023-03-26T05:38:28.381Z,73
2023-03-26T05:41:28.433Z,70
2023-03-26T05:44:28.432Z,49
2023-03-26T05:47:28.461Z,130
2023-03-26T05:49:28.613Z,69
2023-03-26T05:52:28.386Z,94
2023-03-26T05:55:28.392Z,74
2023-03-26T05:57:28.415Z,86
2023-03-26T06:00:28.820Z,86
2023-03-26T06:03:28.525Z,87
2023-03-26T06:05:28.395Z,67
2023-03-26T06:08:28.400Z,85
2023-03-26T06:13:28.414Z,74
2023-03-26T06:16:30.536Z,75
2023-03-26T06:18:28.425Z,64
2023-03-26T06:20:28.477Z,60
2023-03-26T06:23:28.410Z,94
2023-03-26T06:26:28.405Z,76
2023-03-26T06:29:28.726Z,83
2023-03-26T06:31:28.439Z,58
2023-03-26T06:34:28.551Z,63
2023-03-26T06:37:28.616Z,66
2023-03-26T06:39:30.171Z,92
2023-03-26T06:42:32.078Z,69
2023-03-26T06:45:28.539Z,72
2023-03-26T06:48:28.398Z,89
2023-03-26T06:50:28.433Z,50
2023-03-26T06:53:28.367Z,55
2023-03-26T06:55:29.229Z,83
2023-03-26T06:58:28.451Z,70
2023-03-26T07:01:28.426Z,55
2023-03-26T07:04:28.424Z,87
2023-03-26T07:06:28.412Z,84
2023-03-26T07:09:28.449Z,69
2023-03-26T07:12:28.366Z,78
2023-03-26T07:14:29.267Z,102
2023-03-26T07:16:28.578Z,79
2023-03-26T07:18:30.211Z,72
2023-03-26T07:21:28.385Z,91
2023-03-26T07:27:29.834Z,100
2023-03-26T07:32:28.398Z,62
2023-03-26T07:34:40.279Z,84
2023-03-26T07:36:38.674Z,86
2023-03-26T07:40:28.529Z,69
2023-03-26T07:42:28.368Z,57
2023-03-26T07:45:30.063Z,60
2023-03-26T07:47:54.148Z,56
2023-03-26T07:50:48.857Z,76
2023-03-26T07:53:34.359Z,49
2023-03-26T07:56:38.813Z,100
2023-03-26T08:00:28.533Z,111
2023-03-26T08:03:28.431Z,73
2023-03-26T08:05:28.464Z,78
2023-03-26T08:08:28.390Z,80
2023-03-26T08:12:28.350Z,73
2023-03-26T08:14:28.388Z,58
2023-03-26T08:16:28.401Z,51
2023-03-26T08:20:28.410Z,64
2023-03-26T08:22:28.372Z,53
2023-03-26T08:25:28.389Z,49
2023-03-26T08:27:31.760Z,75
2023-03-26T08:30:28.366Z,57
2023-03-26T08:33:28.482Z,57
2023-03-26T08:35:28.422Z,39
2023-03-26T08:38:28.589Z,55
2023-03-26T08:41:28.507Z,56
2023-03-26T08:43:28.448Z,54
2023-03-26T08:46:28.483Z,60
2023-03-26T08:49:29.633Z,44
2023-03-26T08:53:28.347Z,56
2023-03-26T08:55:28.407Z,46
2023-03-26T08:58:28.373Z,46
2023-03-26T09:00:28.415Z,61
2023-03-26T09:03:28.414Z,53
2023-03-26T09:05:28.408Z,50
2023-03-26T09:08:38.671Z,57
2023-03-26T09:11:28.400Z,52
2023-03-26T09:13:31.749Z,86
2023-03-26T09:16:28.430Z,48
2023-03-26T09:18:28.402Z,36
2023-03-26T09:21:28.394Z,43
2023-03-26T09:23:28.665Z,85
2023-03-26T09:26:28.405Z,50
2023-03-26T09:29:28.725Z,35
2023-03-26T09:32:28.564Z,41
2023-03-26T09:35:28.415Z,48
2023-03-26T09:37:28.516Z,43
2023-03-26T09:40:28.382Z,61
2023-03-26T09:42:28.387Z,70
2023-03-26T09:45:28.399Z,50
2023-03-26T09:49:28.384Z,47
2023-03-26T09:52:28.498Z,57
2023-03-26T09:55:28.780Z,75
2023-03-26T09:58:28.400Z,39
2023-03-26T10:03:28.721Z,64
2023-03-26T10:06:28.721Z,89
2023-03-26T10:09:28.393Z,49
2023-03-26T10:11:28.388Z,62
2023-03-26T10:13:28.404Z,53
2023-03-26T10:16:28.444Z,61
2023-03-26T10:20:37.951Z,74
2023-03-26T10:23:28.420Z,57
2023-03-26T10:25:28.628Z,50
2023-03-26T10:29:28.681Z,61
2023-03-26T10:32:30.109Z,56
2023-03-26T10:34:38.776Z,85
2023-03-26T10:37:28.375Z,77
2023-03-26T10:40:28.464Z,53
2023-03-26T10:42:28.401Z,54
2023-03-26T10:45:28.373Z,32
2023-03-26T10:47:28.430Z,32
2023-03-26T10:49:28.409Z,40
2023-03-26T10:52:28.392Z,33
2023-03-26T10:55:28.522Z,30
2023-03-26T10:57:28.429Z,29
2023-03-26T10:59:28.388Z,25
2023-03-26T11:02:29.514Z,29
2023-03-26T11:04:30.090Z,41
2023-03-26T11:07:28.414Z,13
2023-03-26T11:10:28.510Z,25
2023-03-26T11:12:28.501Z,44
2023-03-26T11:15:28.521Z,38
2023-03-26T11:17:39.126Z,34
2023-03-26T11:21:28.593Z,22
2023-03-26T11:24:28.397Z,10
2023-03-26T11:27:29.864Z,18
2023-03-26T11:30:28.409Z,25
2023-03-26T11:33:32.536Z,32
2023-03-26T11:35:39.307Z,37
2023-03-26T11:37:28.414Z,21
2023-03-26T11:40:28.407Z,25
2023-03-26T11:42:28.415Z,21
2023-03-26T11:44:28.476Z,25
2023-03-26T11:47:28.431Z,25
2023-03-26T11:50:28.514Z,27
2023-03-26T11:53:28.390Z,28
2023-03-26T11:56:28.615Z,32
2023-03-26T11:59:28.573Z,29
2023-03-26T12:01:28.497Z,49
2023-03-26T12:04:30.679Z,11
2023-03-26T12:07:28.386Z,36
2023-03-26T12:10:28.361Z,25
2023-03-26T12:12:28.369Z,54
2023-03-26T12:15:28.750Z,24
2023-03-26T12:18:28.399Z,11
2023-03-26T12:20:28.453Z,33
2023-03-26T12:22:28.378Z,22
2023-03-26T12:25:28.533Z,24
2023-03-26T12:27:28.418Z,25
2023-03-26T12:29:28.378Z,28
2023-03-26T12:32:39.369Z,23
2023-03-26T12:34:38.661Z,35
2023-03-26T12:37:28.396Z,36
2023-03-26T12:40:28.393Z,11
2023-03-26T12:44:45.587Z,43
2023-03-26T12:47:55.889Z,20
2023-03-26T12:48:38.718Z,20
2023-03-26T12:51:28.390Z,21
2023-03-26T12:53:28.418Z,36
2023-03-26T12:55:28.424Z,42
2023-03-26T12:57:28.480Z,44
2023-03-26T13:00:28.455Z,16
2023-03-26T13:02:28.564Z,19
2023-03-26T13:05:28.546Z,19
2023-03-26T13:07:28.431Z,68
2023-03-26T13:10:28.491Z,38
2023-03-26T13:12:28.422Z,54
2023-03-26T13:15:28.544Z,37
2023-03-26T13:18:28.442Z,39
2023-03-26T13:21:28.436Z,17
2023-03-26T13:24:28.419Z,32
2023-03-26T13:26:28.435Z,51
2023-03-26T13:28:28.418Z,18
2023-03-26T13:31:28.534Z,25
2023-03-26T13:34:28.416Z,42
2023-03-26T13:37:28.592Z,17
2023-03-26T13:39:28.431Z,40
2023-03-26T13:42:28.420Z,35
2023-03-26T13:44:30.100Z,39
2023-03-26T13:46:38.745Z,19
2023-03-26T13:49:28.439Z,25
2023-03-26T13:51:30.139Z,22
2023-03-26T13:54:28.403Z,38
2023-03-26T13:57:28.395Z,28
2023-03-26T13:59:30.126Z,52
2023-03-26T14:02:28.564Z,15
2023-03-26T14:05:28.462Z,15
2023-03-26T14:08:28.418Z,24
2023-03-26T14:10:28.645Z,24
2023-03-26T14:13:28.425Z,38
2023-03-26T14:15:51.064Z,13
2023-03-26T14:18:28.433Z,28
2023-03-26T14:20:28.480Z,20
2023-03-26T14:22:28.401Z,12
2023-03-26T14:24:29.744Z,22
2023-03-26T14:27:28.410Z,29
2023-03-26T14:29:30.097Z,48
2023-03-26T14:31:33.654Z,17
2023-03-26T14:33:38.694Z,14
2023-03-26T14:35:38.835Z,18
2023-03-26T14:38:28.482Z,4
2023-03-26T14:41:28.417Z,6
2023-03-26T14:43:38.728Z,18
2023-03-26T14:45:38.961Z,12
2023-03-26T14:48:28.459Z,20
2023-03-26T14:50:30.073Z,13
2023-03-26T14:53:28.400Z,16
2023-03-26T14:55:28.459Z,21
2023-03-26T14:58:30.029Z,20
2023-03-26T15:00:28.583Z,9
2023-03-26T15:02:38.881Z,3
2023-03-26T15:05:28.518Z,6
2023-03-26T15:07:30.153Z,6
2023-03-26T15:10:28.597Z,3
2023-03-26T15:13:28.435Z,24
2023-03-26T15:16:36.782Z,13
2023-03-26T15:17:38.732Z,9
2023-03-26T15:19:38.886Z,18
2023-03-26T15:22:28.584Z,14
2023-03-26T15:25:28.726Z,9
2023-03-26T15:27:28.487Z,13
2023-03-26T15:29:30.277Z,14
2023-03-26T15:32:28.539Z,17
2023-03-26T15:34:38.707Z,11
2023-03-26T15:37:28.491Z,7
2023-03-26T15:40:28.818Z,23
2023-03-26T15:43:28.431Z,10
2023-03-26T15:45:28.701Z,8
2023-03-26T15:48:28.505Z,18
2023-03-26T15:51:28.745Z,22
2023-03-26T15:55:28.540Z,8
2023-03-26T15:58:30.129Z,20
2023-03-26T16:01:29.368Z,8
2023-03-26T16:03:28.438Z,7
2023-03-26T16:05:51.587Z,11
2023-03-26T16:08:28.462Z,26
2023-03-26T16:11:29.815Z,21
2023-03-26T16:13:31.042Z,11
2023-03-26T16:16:28.544Z,12
2023-03-26T16:18:28.472Z,30
2023-03-26T16:22:29.282Z,9
2023-03-26T16:25:29.157Z,16
2023-03-26T16:27:28.451Z,10
2023-03-26T16:30:41.538Z,36
2023-03-26T16:33:28.438Z,14
2023-03-26T16:35:28.655Z,22
2023-03-26T16:38:28.440Z,33
2023-03-26T16:41:28.525Z,19
2023-03-26T16:43:28.460Z,24
2023-03-26T16:46:29.133Z,22
2023-03-26T16:48:28.456Z,20
2023-03-26T16:51:28.739Z,23
2023-03-26T16:53:28.459Z,12
2023-03-26T16:56:28.578Z,77
2023-03-26T16:58:28.457Z,19
2023-03-26T17:01:28.495Z,17
2023-03-26T17:04:28.433Z,31
2023-03-26T17:06:28.439Z,22
2023-03-26T17:09:28.451Z,24
2023-03-26T17:12:28.433Z,20
2023-03-26T17:14:28.450Z,11
2023-03-26T17:17:28.838Z,21
2023-03-26T17:20:28.639Z,16
2023-03-26T17:22:28.454Z,12
2023-03-26T17:24:28.678Z,37
2023-03-26T17:27:28.468Z,14
2023-03-26T17:30:28.632Z,7
2023-03-26T17:33:28.459Z,15
2023-03-26T17:36:28.562Z,29
2023-03-26T17:38:28.475Z,16
2023-03-26T17:40:28.559Z,11
2023-03-26T17:42:28.498Z,16
2023-03-26T17:45:28.496Z,31
2023-03-26T17:48:28.514Z,23
2023-03-26T17:51:28.466Z,31
2023-03-26T17:53:28.455Z,14
2023-03-26T17:55:28.460Z,18
2023-03-26T17:57:28.496Z,29
2023-03-26T18:03:30.811Z,14
2023-03-26T18:06:28.483Z,21
2023-03-26T18:08:28.511Z,23
2023-03-26T18:11:28.474Z,16
2023-03-26T18:14:28.453Z,25
2023-03-26T18:16:28.498Z,12
2023-03-26T18:19:28.564Z,27
2023-03-26T18:21:28.469Z,17
2023-03-26T18:24:28.485Z,16
2023-03-26T18:27:28.452Z,19
2023-03-26T18:29:28.589Z,20
2023-03-26T18:33:28.464Z,20
2023-03-26T18:36:28.488Z,11
2023-03-26T18:39:28.473Z,21
2023-03-26T18:41:28.861Z,16
2023-03-26T18:44:28.499Z,29
2023-03-26T18:47:28.723Z,21
2023-03-26T18:49:28.500Z,21
2023-03-26T18:52:33.093Z,33
2023-03-26T18:55:28.497Z,36
2023-03-26T18:58:28.459Z,20
2023-03-26T19:00:28.467Z,28
2023-03-26T19:03:28.550Z,27
2023-03-26T19:06:28.439Z,5
2023-03-26T19:08:28.485Z,16
2023-03-26T19:11:28.481Z,24
2023-03-26T19:14:28.439Z,25
2023-03-26T19:16:28.515Z,29
2023-03-26T19:19:28.463Z,26
2023-03-26T19:21:28.450Z,19
2023-03-26T19:24:28.475Z,29
2023-03-26T19:26:28.545Z,19
2023-03-26T19:29:28.486Z,24
2023-03-26T19:32:28.523Z,20
2023-03-26T19:34:28.470Z,30
2023-03-26T19:37:28.480Z,6
2023-03-26T19:39:37.029Z,13
2023-03-26T19:42:43.507Z,16
2023-03-26T19:44:28.619Z,27
2023-03-26T19:47:35.502Z,40
2023-03-26T19:49:28.637Z,21
2023-03-26T19:52:30.742Z,21
2023-03-26T19:55:28.489Z,8
2023-03-26T19:58:28.484Z,13
2023-03-26T20:00:28.500Z,19
2023-03-26T20:03:28.555Z,13
2023-03-26T20:05:28.525Z,21
2023-03-26T20:07:35.223Z,10
2023-03-26T20:09:28.520Z,7
2023-03-26T20:12:28.500Z,30
2023-03-26T20:15:28.525Z,29
2023-03-26T20:18:28.475Z,9
2023-03-26T20:20:28.502Z,10
2023-03-26T20:23:28.498Z,16
2023-03-26T20:26:28.694Z,10
2023-03-26T20:28:28.713Z,10
2023-03-26T20:31:28.637Z,27
2023-03-26T20:33:28.524Z,20
2023-03-26T20:35:35.750Z,14
2023-03-26T20:38:38.897Z,19
2023-03-26T20:40:28.502Z,7
2023-03-26T20:43:28.481Z,6
2023-03-26T20:45:28.506Z,30
2023-03-26T20:48:28.503Z,18
2023-03-26T20:51:29.038Z,6
2023-03-26T20:53:28.494Z,16
2023-03-26T20:56:28.459Z,14
2023-03-26T20:59:28.587Z,24
2023-03-26T21:01:28.534Z,17
2023-03-26T21:03:28.598Z,23
2023-03-26T21:06:28.481Z,9
2023-03-26T21:09:28.526Z,14
2023-03-26T21:12:30.151Z,9
2023-03-26T21:15:28.500Z,8
2023-03-26T21:18:28.463Z,17
2023-03-26T21:20:28.504Z,9
2023-03-26T21:23:28.751Z,6
2023-03-26T21:25:28.495Z,9
2023-03-26T21:27:28.491Z,11
2023-03-26T21:30:28.503Z,7
2023-03-26T21:33:29.715Z,8
2023-03-26T21:36:29.557Z,7
2023-03-26T21:39:28.491Z,5
2023-03-26T21:42:28.461Z,13
2023-03-26T21:45:28.744Z,8
2023-03-26T21:48:28.529Z,5
2023-03-26T21:54:28.485Z,4
2023-03-26T21:56:28.514Z,5
2023-03-26T21:59:28.462Z,17
2023-03-26T22:01:28.514Z,5
2023-03-26T22:03:28.510Z,4
2023-03-26T22:05:28.525Z,5
2023-03-26T22:08:28.535Z,5
2023-03-26T22:11:28.550Z,4
2023-03-26T22:13:28.486Z,5
2023-03-26T22:19:30.211Z,7
2023-03-26T22:22:28.539Z,14
2023-03-26T22:25:28.488Z,10
2023-03-26T22:28:28.488Z,15
2023-03-26T22:31:28.566Z,5
2023-03-26T22:33:28.482Z,5
2023-03-26T22:35:28.521Z,5
2023-03-26T22:38:28.567Z,5
2023-03-26T22:41:28.529Z,10
2023-03-26T22:44:28.460Z,6
2023-03-26T22:46:28.534Z,5
2023-03-26T22:48:28.497Z,10
2023-03-26T22:51:28.522Z,9
2023-03-26T22:55:29.950Z,4
2023-03-26T22:58:28.503Z,5
2023-03-26T23:01:28.499Z,6
2023-03-26T23:03:34.948Z,7
2023-03-26T23:06:28.545Z,6
2023-03-26T23:09:28.501Z,14
2023-03-26T23:11:28.507Z,17
2023-03-26T23:14:28.462Z,6
2023-03-26T23:16:29.621Z,10
2023-03-26T23:19:28.511Z,8
2023-03-26T23:22:28.488Z,8
2023-03-26T23:24:28.491Z,6
2023-03-26T23:27:28.516Z,7
2023-03-26T23:29:28.491Z,20
2023-03-26T23:31:28.637Z,48
2023-03-26T23:34:28.494Z,31
2023-03-26T23:36:28.518Z,17
2023-03-26T23:38:28.560Z,7
2023-03-26T23:41:28.516Z,12
2023-03-26T23:44:28.510Z,13
2023-03-26T23:46:28.489Z,23
2023-03-26T23:48:28.535Z,14
2023-03-26T23:51:28.499Z,12
2023-03-26T23:53:28.523Z,13
2023-03-26T23:56:28.495Z,44
2023-03-26T23:59:28.521Z,34
